Time;durP1;ratioP1;P1;durP2;ratioP2;P2;SDS_P1;SDS_P2;PMS_P1;PMS_P2;Temp;Humidity;BMP_temperature;BMP_pressure;BME280_temperature;BME280_humidity;BME280_pressure;Samples;Min_cycle;Max_cycle;Signal;HPM_P1;HPM_P2
2023/03/11 00:00:21;;;;;;;54.30;26.27;;;;;;;;;;4993506;28;20030;-68
2023/03/11 00:02:48;;;;;;;50.85;24.42;;;;;;;;;;4993298;28;20034;-68
2023/03/11 00:05:20;;;;;;;53.75;25.63;;;;;;;;;;4993457;28;20030;-68
2023/03/11 00:07:45;;;;;;;53.25;25.55;;;;;;;;;;4993476;28;20038;-68
2023/03/11 00:10:20;;;;;;;47.90;24.85;;;;;;;;;;4988573;28;20058;-68
2023/03/11 00:12:45;;;;;;;46.85;25.23;;;;;;;;;;4983439;28;20023;-68
2023/03/11 00:15:12;;;;;;;44.13;24.15;;;;;;;;;;4978831;28;20396;-68
2023/03/11 00:17:38;;;;;;;43.45;23.98;;;;;;;;;;4981985;28;20026;-68
2023/03/11 00:20:06;;;;;;;44.53;22.55;;;;;;;;;;4978418;28;20031;-68
2023/03/11 00:22:31;;;;;;;49.17;25.20;;;;;;;;;;4973715;28;20234;-68
2023/03/11 00:24:57;;;;;;;48.40;23.20;;;;;;;;;;4973672;28;20559;-69
2023/03/11 00:27:23;;;;;;;48.85;25.85;;;;;;;;;;4973721;28;20027;-69
2023/03/11 00:29:48;;;;;;;41.63;22.27;;;;;;;;;;4973440;28;20043;-69
2023/03/11 00:32:15;;;;;;;43.15;21.50;;;;;;;;;;4983868;28;20042;-68
2023/03/11 00:34:41;;;;;;;37.78;20.85;;;;;;;;;;4993111;28;20105;-68
2023/03/11 00:37:07;;;;;;;37.78;18.95;;;;;;;;;;4993038;28;20054;-69
2023/03/11 00:39:33;;;;;;;43.80;25.80;;;;;;;;;;4993003;28;20101;-69
2023/03/11 00:41:58;;;;;;;33.63;18.65;;;;;;;;;;4993068;28;20137;-69
2023/03/11 00:44:24;;;;;;;35.10;18.63;;;;;;;;;;4993130;28;20022;-68
2023/03/11 00:46:49;;;;;;;40.58;21.33;;;;;;;;;;4992793;28;20049;-69
2023/03/11 00:49:15;;;;;;;38.58;19.15;;;;;;;;;;4992910;28;20030;-69
2023/03/11 00:51:40;;;;;;;37.10;20.85;;;;;;;;;;4992864;28;20384;-69
2023/03/11 00:54:05;;;;;;;35.83;19.27;;;;;;;;;;4992879;28;20109;-69
2023/03/11 00:56:31;;;;;;;35.78;18.55;;;;;;;;;;4992806;28;20026;-69
2023/03/11 00:58:56;;;;;;;30.77;16.65;;;;;;;;;;4992579;28;20029;-69
2023/03/11 01:01:22;;;;;;;35.22;19.25;;;;;;;;;;4992481;28;20057;-69
2023/03/11 01:03:47;;;;;;;31.67;17.33;;;;;;;;;;4992830;28;20484;-68
2023/03/11 01:06:13;;;;;;;26.50;13.82;;;;;;;;;;4992729;28;20027;-68
2023/03/11 01:08:39;;;;;;;32.65;18.98;;;;;;;;;;4992803;28;20034;-69
2023/03/11 01:11:06;;;;;;;29.58;16.08;;;;;;;;;;4992535;28;20037;-68
2023/03/11 01:13:32;;;;;;;27.73;15.55;;;;;;;;;;4992649;28;20062;-69
2023/03/11 01:15:58;;;;;;;28.65;16.42;;;;;;;;;;4992340;28;20031;-69
2023/03/11 01:18:23;;;;;;;25.75;14.23;;;;;;;;;;4992813;28;20030;-69
2023/03/11 01:20:49;;;;;;;26.80;14.80;;;;;;;;;;4991329;28;20113;-69
2023/03/11 01:23:16;;;;;;;24.60;14.15;;;;;;;;;;4992567;28;20045;-69
2023/03/11 01:25:41;;;;;;;25.60;15.10;;;;;;;;;;4992568;28;20026;-69
2023/03/11 01:28:07;;;;;;;32.70;16.80;;;;;;;;;;4994859;28;20085;-69
2023/03/11 01:30:35;;;;;;;42.20;21.88;;;;;;;;;;4989853;28;20051;-69
2023/03/11 01:33:00;;;;;;;63.17;27.70;;;;;;;;;;4979462;28;20030;-69
2023/03/11 01:35:28;;;;;;;88.35;31.63;;;;;;;;;;4976477;28;20049;-68
2023/03/11 01:37:54;;;;;;;89.50;32.05;;;;;;;;;;4976702;28;20031;-68
2023/03/11 01:40:27;;;;;;;78.40;31.42;;;;;;;;;;4976400;28;20023;-69
2023/03/11 01:42:53;;;;;;;51.30;21.92;;;;;;;;;;4976525;28;20408;-69
2023/03/11 01:45:28;;;;;;;40.10;19.10;;;;;;;;;;4976136;28;20042;-69
2023/03/11 01:47:53;;;;;;;32.85;16.95;;;;;;;;;;4987844;28;20026;-69
2023/03/11 01:50:19;;;;;;;29.75;15.77;;;;;;;;;;4995689;28;20094;-69
2023/03/11 01:52:45;;;;;;;22.80;11.88;;;;;;;;;;4995638;28;20101;-69
2023/03/11 01:55:12;;;;;;;18.17;11.05;;;;;;;;;;4995602;28;20105;-69
2023/03/11 01:57:39;;;;;;;18.63;11.88;;;;;;;;;;4995588;28;20428;-69
2023/03/11 02:00:08;;;;;;;15.48;10.13;;;;;;;;;;4995353;28;20049;-69
2023/03/11 02:02:40;;;;;;;17.02;10.40;;;;;;;;;;4995408;28;20062;-69
2023/03/11 02:05:06;;;;;;;17.52;10.55;;;;;;;;;;4995430;28;20380;-69
2023/03/11 02:07:32;;;;;;;16.00;10.27;;;;;;;;;;4988142;28;20419;-69
2023/03/11 02:09:57;;;;;;;17.00;9.95;;;;;;;;;;4993533;28;20096;-69
2023/03/11 02:12:24;;;;;;;15.25;10.25;;;;;;;;;;4995312;28;20034;-69
2023/03/11 02:14:52;;;;;;;15.52;9.23;;;;;;;;;;4995094;28;20114;-69
2023/03/11 02:17:18;;;;;;;18.10;9.93;;;;;;;;;;4995233;28;20045;-69
2023/03/11 02:19:58;;;;;;;17.92;11.07;;;;;;;;;;4995300;28;20027;-69
2023/03/11 02:22:24;;;;;;;14.67;8.77;;;;;;;;;;4995288;28;20117;-69
2023/03/11 02:25:13;;;;;;;12.30;8.25;;;;;;;;;;4995178;28;20280;-69
2023/03/11 02:27:43;;;;;;;17.23;10.63;;;;;;;;;;4994905;28;20034;-68
2023/03/11 02:30:10;;;;;;;10.15;6.53;;;;;;;;;;4994734;28;20394;-69
2023/03/11 02:32:37;;;;;;;12.88;7.75;;;;;;;;;;4994783;28;20030;-68
2023/03/11 02:35:03;;;;;;;9.93;5.78;;;;;;;;;;4994879;28;20459;-69
2023/03/11 02:37:28;;;;;;;9.60;6.22;;;;;;;;;;4994595;28;20084;-68
2023/03/11 02:39:54;;;;;;;11.27;5.32;;;;;;;;;;4994949;28;20022;-69
2023/03/11 02:42:31;;;;;;;7.28;4.53;;;;;;;;;;4994521;28;20102;-69
2023/03/11 02:45:12;;;;;;;7.30;5.13;;;;;;;;;;4994695;28;20045;-69
2023/03/11 02:47:39;;;;;;;7.25;4.75;;;;;;;;;;4986012;28;20080;-69
2023/03/11 02:50:08;;;;;;;6.35;4.00;;;;;;;;;;4984309;28;20154;-69
2023/03/11 02:52:34;;;;;;;5.22;3.70;;;;;;;;;;4983466;28;20069;-69
2023/03/11 02:55:00;;;;;;;4.30;2.90;;;;;;;;;;4985418;28;20037;-69
2023/03/11 02:57:25;;;;;;;5.88;3.78;;;;;;;;;;4983989;28;20023;-69
2023/03/11 02:59:51;;;;;;;3.90;2.95;;;;;;;;;;4983784;28;20022;-69
2023/03/11 03:02:16;;;;;;;4.43;2.90;;;;;;;;;;4984964;28;20383;-69
2023/03/11 03:04:42;;;;;;;4.70;3.00;;;;;;;;;;4982611;28;20029;-69
2023/03/11 03:07:07;;;;;;;4.43;2.90;;;;;;;;;;4983345;28;20060;-69
2023/03/11 03:09:34;;;;;;;4.57;3.40;;;;;;;;;;4984094;28;20078;-69
2023/03/11 03:11:59;;;;;;;3.75;2.45;;;;;;;;;;4981820;28;20435;-69
2023/03/11 03:14:25;;;;;;;2.90;2.10;;;;;;;;;;4983520;28;20027;-69
2023/03/11 03:16:50;;;;;;;4.40;2.97;;;;;;;;;;4981417;28;20480;-69
2023/03/11 03:19:16;;;;;;;4.95;2.80;;;;;;;;;;4973933;28;20457;-69
2023/03/11 03:21:41;;;;;;;5.20;2.70;;;;;;;;;;4973799;28;20456;-69
2023/03/11 03:24:07;;;;;;;4.50;2.78;;;;;;;;;;4974658;28;20058;-69
2023/03/11 03:26:32;;;;;;;3.75;2.60;;;;;;;;;;4974552;28;20380;-69
2023/03/11 03:28:57;;;;;;;3.20;2.28;;;;;;;;;;4974461;28;20043;-69
2023/03/11 03:31:24;;;;;;;3.38;2.50;;;;;;;;;;4978411;28;20034;-69
2023/03/11 03:33:50;;;;;;;5.47;2.95;;;;;;;;;;4993979;28;20022;-68
2023/03/11 03:36:15;;;;;;;5.80;2.75;;;;;;;;;;4993978;28;20522;-69
2023/03/11 03:38:41;;;;;;;5.82;3.47;;;;;;;;;;4993848;28;20072;-68
2023/03/11 03:41:07;;;;;;;6.75;3.17;;;;;;;;;;4993534;28;20049;-68
2023/03/11 03:43:32;;;;;;;3.33;2.65;;;;;;;;;;4993774;28;20022;-69
2023/03/11 03:46:00;;;;;;;3.15;2.22;;;;;;;;;;4993831;28;20030;-69
2023/03/11 03:48:27;;;;;;;8.65;2.58;;;;;;;;;;4993846;28;20054;-69
2023/03/11 03:50:53;;;;;;;5.25;2.67;;;;;;;;;;4992743;28;20030;-68
2023/03/11 03:53:18;;;;;;;3.97;2.63;;;;;;;;;;4993623;28;20419;-68
2023/03/11 03:55:44;;;;;;;4.88;2.97;;;;;;;;;;4993396;28;20026;-69
2023/03/11 03:58:09;;;;;;;6.15;3.55;;;;;;;;;;4993556;28;20476;-69
2023/03/11 04:00:35;;;;;;;5.75;2.65;;;;;;;;;;4993534;28;20030;-69
2023/03/11 04:03:01;;;;;;;4.57;2.90;;;;;;;;;;4993496;28;20034;-69
2023/03/11 04:05:26;;;;;;;5.63;3.13;;;;;;;;;;4993455;28;20027;-69
2023/03/11 04:07:53;;;;;;;4.57;2.42;;;;;;;;;;4993701;28;20035;-69
2023/03/11 04:10:18;;;;;;;4.45;2.90;;;;;;;;;;4993321;28;20065;-69
2023/03/11 04:12:44;;;;;;;4.28;2.75;;;;;;;;;;4993324;28;20026;-69
2023/03/11 04:15:10;;;;;;;5.70;3.78;;;;;;;;;;4993469;28;20049;-69
2023/03/11 04:17:36;;;;;;;3.20;2.53;;;;;;;;;;4993347;28;20031;-69
2023/03/11 04:20:02;;;;;;;9.45;3.25;;;;;;;;;;4993377;28;20420;-68
2023/03/11 04:22:27;;;;;;;4.30;2.83;;;;;;;;;;4993358;28;20041;-69
2023/03/11 04:24:52;;;;;;;4.15;2.47;;;;;;;;;;4993121;28;20173;-69
2023/03/11 04:27:18;;;;;;;6.90;3.85;;;;;;;;;;4993442;28;20146;-69
2023/03/11 04:29:43;;;;;;;9.27;3.38;;;;;;;;;;4993039;28;20078;-69
2023/03/11 04:32:09;;;;;;;6.72;3.92;;;;;;;;;;5003206;28;20483;-68
2023/03/11 04:34:34;;;;;;;6.80;3.65;;;;;;;;;;5012949;28;20022;-69
2023/03/11 04:36:59;;;;;;;11.15;4.50;;;;;;;;;;5012884;28;20022;-69
2023/03/11 04:39:25;;;;;;;6.68;4.18;;;;;;;;;;5012618;28;20049;-68
2023/03/11 04:41:50;;;;;;;5.15;3.40;;;;;;;;;;5012592;28;20065;-68
2023/03/11 04:44:16;;;;;;;8.73;4.38;;;;;;;;;;5012758;28;20044;-68
2023/03/11 04:46:41;;;;;;;7.90;3.42;;;;;;;;;;5012788;28;20045;-69
2023/03/11 04:49:07;;;;;;;6.90;3.03;;;;;;;;;;5012708;28;20022;-68
2023/03/11 04:51:32;;;;;;;8.27;4.50;;;;;;;;;;5012536;28;20069;-68
2023/03/11 04:53:58;;;;;;;6.30;2.95;;;;;;;;;;5012443;28;20083;-68
2023/03/11 04:56:23;;;;;;;4.45;2.58;;;;;;;;;;5012656;28;20030;-68
2023/03/11 04:58:48;;;;;;;6.60;2.97;;;;;;;;;;5000378;28;20136;-68
2023/03/11 05:01:14;;;;;;;4.85;2.85;;;;;;;;;;4994205;28;20030;-68
2023/03/11 05:03:39;;;;;;;4.30;2.78;;;;;;;;;;4996602;28;20031;-68
2023/03/11 05:06:05;;;;;;;5.00;2.67;;;;;;;;;;4996733;28;20400;-68
2023/03/11 05:08:30;;;;;;;4.72;2.58;;;;;;;;;;4996475;28;20034;-67
2023/03/11 05:10:56;;;;;;;4.43;2.60;;;;;;;;;;4996545;28;20034;-68
2023/03/11 05:13:21;;;;;;;6.35;2.40;;;;;;;;;;4996749;28;20026;-68
2023/03/11 05:15:47;;;;;;;12.20;3.45;;;;;;;;;;4996463;28;20038;-67
2023/03/11 05:18:14;;;;;;;3.72;2.17;;;;;;;;;;4996398;28;20105;-68
2023/03/11 05:20:39;;;;;;;6.80;3.08;;;;;;;;;;4996539;28;20080;-68
2023/03/11 05:23:05;;;;;;;5.70;3.03;;;;;;;;;;4995994;28;20464;-68
2023/03/11 05:25:30;;;;;;;13.07;3.60;;;;;;;;;;4996366;28;20049;-68
2023/03/11 05:27:56;;;;;;;7.47;4.45;;;;;;;;;;4996293;28;20101;-68
2023/03/11 05:30:21;;;;;;;7.32;3.63;;;;;;;;;;4996001;28;20112;-68
2023/03/11 05:32:47;;;;;;;6.10;3.63;;;;;;;;;;5011009;28;20193;-68
2023/03/11 05:35:13;;;;;;;8.77;3.85;;;;;;;;;;5015651;28;20034;-68
2023/03/11 05:37:39;;;;;;;10.57;3.25;;;;;;;;;;5015661;28;20036;-68
2023/03/11 05:40:06;;;;;;;5.45;3.40;;;;;;;;;;5015660;28;20026;-68
2023/03/11 05:42:33;;;;;;;4.95;2.80;;;;;;;;;;5015432;28;20034;-68
2023/03/11 05:44:58;;;;;;;6.03;2.75;;;;;;;;;;5015525;28;20122;-68
2023/03/11 05:47:23;;;;;;;4.80;2.95;;;;;;;;;;5015377;28;20209;-68
2023/03/11 05:49:49;;;;;;;7.63;3.58;;;;;;;;;;5015461;28;20018;-68
2023/03/11 05:52:14;;;;;;;9.80;4.00;;;;;;;;;;5015162;28;20152;-68
2023/03/11 05:54:40;;;;;;;8.65;3.60;;;;;;;;;;5015499;28;20022;-68
2023/03/11 05:57:05;;;;;;;4.40;2.97;;;;;;;;;;5015380;28;20033;-68
2023/03/11 05:59:34;;;;;;;6.50;3.55;;;;;;;;;;5008591;28;20039;-68
2023/03/11 06:02:00;;;;;;;8.27;3.08;;;;;;;;;;4995506;28;20030;-68
2023/03/11 06:04:26;;;;;;;5.88;3.33;;;;;;;;;;4995594;28;20034;-68
2023/03/11 06:06:51;;;;;;;6.97;3.22;;;;;;;;;;4995178;28;20033;-67
2023/03/11 06:09:17;;;;;;;8.13;3.45;;;;;;;;;;4995605;28;20034;-68
2023/03/11 06:11:42;;;;;;;5.50;2.80;;;;;;;;;;4995425;28;20030;-68
2023/03/11 06:14:12;;;;;;;5.53;2.78;;;;;;;;;;4994954;28;20045;-68
2023/03/11 06:16:38;;;;;;;9.48;3.63;;;;;;;;;;4995600;28;20161;-68
2023/03/11 06:19:03;;;;;;;6.38;3.03;;;;;;;;;;4995349;28;20117;-68
2023/03/11 06:21:29;;;;;;;6.30;3.17;;;;;;;;;;4994965;28;20030;-68
2023/03/11 06:23:54;;;;;;;7.90;3.53;;;;;;;;;;4995361;28;20053;-68
2023/03/11 06:26:21;;;;;;;4.95;2.53;;;;;;;;;;4995074;28;20018;-68
2023/03/11 06:28:48;;;;;;;5.60;2.72;;;;;;;;;;4994898;28;20030;-68
2023/03/11 06:31:18;;;;;;;5.03;3.42;;;;;;;;;;4992303;28;20117;-68
2023/03/11 06:33:44;;;;;;;6.28;3.03;;;;;;;;;;4975695;28;20480;-68
2023/03/11 06:36:12;;;;;;;5.55;3.15;;;;;;;;;;4975404;28;20042;-68
2023/03/11 06:38:38;;;;;;;7.03;3.47;;;;;;;;;;4975520;28;20058;-68
2023/03/11 06:41:05;;;;;;;6.57;3.40;;;;;;;;;;4975195;28;20078;-68
2023/03/11 06:43:32;;;;;;;8.13;3.40;;;;;;;;;;4975449;28;20038;-68
2023/03/11 06:45:58;;;;;;;7.07;3.65;;;;;;;;;;4975485;28;20129;-68
2023/03/11 06:48:24;;;;;;;7.72;3.35;;;;;;;;;;4975160;28;20117;-68
2023/03/11 06:50:57;;;;;;;10.80;4.13;;;;;;;;;;4975307;28;20069;-68
2023/03/11 06:53:22;;;;;;;5.93;3.33;;;;;;;;;;4975133;28;20031;-68
2023/03/11 06:56:17;;;;;;;5.95;3.38;;;;;;;;;;4975182;28;20035;-68
2023/03/11 06:58:42;;;;;;;5.88;3.47;;;;;;;;;;4970539;28;20043;-68
2023/03/11 07:01:21;;;;;;;9.38;4.90;;;;;;;;;;4974991;28;20033;-68
2023/03/11 07:03:47;;;;;;;9.00;4.05;;;;;;;;;;4975007;28;20056;-68
2023/03/11 07:06:16;;;;;;;7.63;3.58;;;;;;;;;;4974724;28;20074;-68
2023/03/11 07:08:41;;;;;;;7.40;3.55;;;;;;;;;;4974933;28;20077;-68
2023/03/11 07:11:12;;;;;;;7.45;4.28;;;;;;;;;;4974817;28;20057;-68
2023/03/11 07:13:37;;;;;;;11.02;3.25;;;;;;;;;;4974923;28;20031;-68
2023/03/11 07:16:06;;;;;;;8.63;3.88;;;;;;;;;;4989761;28;20046;-68
2023/03/11 07:18:32;;;;;;;10.93;4.65;;;;;;;;;;4974510;28;20396;-69
2023/03/11 07:20:59;;;;;;;7.82;3.60;;;;;;;;;;4974496;28;20490;-68
2023/03/11 07:23:25;;;;;;;4.00;2.80;;;;;;;;;;4974550;28;20495;-68
2023/03/11 07:25:51;;;;;;;9.38;3.30;;;;;;;;;;4973708;28;20034;-68
2023/03/11 07:28:17;;;;;;;7.85;2.95;;;;;;;;;;4974739;28;20473;-68
2023/03/11 07:30:45;;;;;;;9.75;4.53;;;;;;;;;;4974408;28;20075;-68
2023/03/11 07:33:11;;;;;;;8.60;3.80;;;;;;;;;;4974148;28;20038;-68
2023/03/11 07:35:36;;;;;;;11.18;6.00;;;;;;;;;;4974603;28;20035;-68
2023/03/11 07:38:01;;;;;;;12.98;6.72;;;;;;;;;;4989267;28;20110;-68
2023/03/11 07:40:27;;;;;;;11.60;6.18;;;;;;;;;;4974276;28;20035;-67
2023/03/11 07:42:52;;;;;;;12.57;7.57;;;;;;;;;;4974248;28;20081;-68
2023/03/11 07:45:18;;;;;;;7.72;4.55;;;;;;;;;;4974284;28;20035;-68
2023/03/11 07:47:43;;;;;;;8.38;4.70;;;;;;;;;;4974258;28;20026;-68
2023/03/11 07:50:09;;;;;;;6.47;4.03;;;;;;;;;;4974174;28;20106;-68
2023/03/11 07:52:34;;;;;;;6.10;3.28;;;;;;;;;;4974293;28;20033;-67
2023/03/11 07:55:00;;;;;;;4.63;3.33;;;;;;;;;;4974253;28;20387;-68
2023/03/11 07:57:25;;;;;;;7.45;3.63;;;;;;;;;;4988927;28;20031;-68
2023/03/11 07:59:51;;;;;;;8.35;4.35;;;;;;;;;;4974128;28;20080;-68
2023/03/11 08:02:16;;;;;;;8.85;4.70;;;;;;;;;;4973867;28;20434;-68
2023/03/11 08:04:42;;;;;;;9.40;5.10;;;;;;;;;;4974118;28;20058;-68
2023/03/11 08:07:07;;;;;;;9.98;5.53;;;;;;;;;;4973967;28;20117;-68
2023/03/11 08:09:36;;;;;;;12.70;5.60;;;;;;;;;;4973996;28;20023;-68
2023/03/11 08:12:01;;;;;;;8.38;3.53;;;;;;;;;;4974059;28;20200;-67
2023/03/11 08:14:27;;;;;;;7.18;3.92;;;;;;;;;;4973888;28;20107;-67
2023/03/11 08:16:52;;;;;;;10.45;4.60;;;;;;;;;;4990482;28;20034;-67
2023/03/11 08:19:17;;;;;;;7.88;3.95;;;;;;;;;;4993353;28;20026;-68
2023/03/11 08:21:43;;;;;;;8.48;4.32;;;;;;;;;;4993293;28;20121;-68
2023/03/11 08:24:11;;;;;;;6.03;3.08;;;;;;;;;;4993354;28;20037;-68
2023/03/11 08:26:36;;;;;;;5.90;3.30;;;;;;;;;;4992154;28;20034;-68
2023/03/11 08:29:02;;;;;;;7.85;4.55;;;;;;;;;;4993165;28;20053;-68
2023/03/11 08:31:30;;;;;;;8.88;4.10;;;;;;;;;;4997272;28;20150;-68
2023/03/11 08:34:05;;;;;;;7.82;3.97;;;;;;;;;;5012929;28;20447;-67
2023/03/11 08:36:31;;;;;;;3.13;2.00;;;;;;;;;;5014661;28;20051;-68
2023/03/11 08:38:57;;;;;;;7.65;3.90;;;;;;;;;;5016721;28;20022;-68
2023/03/11 08:41:23;;;;;;;6.45;3.17;;;;;;;;;;5016417;28;20506;-68
2023/03/11 08:43:51;;;;;;;11.90;3.88;;;;;;;;;;5016723;28;20065;-68
2023/03/11 08:46:28;;;;;;;4.85;3.13;;;;;;;;;;5016381;28;20022;-68
2023/03/11 08:48:54;;;;;;;5.75;3.40;;;;;;;;;;5016660;28;20030;-68
2023/03/11 08:51:19;;;;;;;5.10;3.17;;;;;;;;;;5016430;28;20029;-68
2023/03/11 08:53:45;;;;;;;4.60;3.30;;;;;;;;;;5013904;28;20029;-67
2023/03/11 08:56:11;;;;;;;8.00;3.28;;;;;;;;;;4985752;28;20019;-67
2023/03/11 08:58:36;;;;;;;7.95;3.90;;;;;;;;;;4985054;28;20476;-67
2023/03/11 09:01:03;;;;;;;7.05;3.72;;;;;;;;;;4986020;28;20489;-67
2023/03/11 09:03:34;;;;;;;4.93;3.00;;;;;;;;;;4986217;28;20033;-68
2023/03/11 09:06:00;;;;;;;7.07;3.80;;;;;;;;;;4985022;28;20050;-69
2023/03/11 09:08:26;;;;;;;4.05;3.10;;;;;;;;;;4986791;28;20026;-67
2023/03/11 09:10:52;;;;;;;5.68;2.70;;;;;;;;;;4986437;28;20109;-67
2023/03/11 09:13:17;;;;;;;4.68;2.90;;;;;;;;;;4998098;28;20125;-67
2023/03/11 09:15:43;;;;;;;4.78;3.47;;;;;;;;;;4984578;28;20511;-67
2023/03/11 09:18:13;;;;;;;4.63;2.95;;;;;;;;;;4988160;28;20472;-67
2023/03/11 09:20:39;;;;;;;4.80;2.90;;;;;;;;;;4988971;28;20227;-67
2023/03/11 09:23:05;;;;;;;3.00;2.20;;;;;;;;;;4986585;28;20484;-67
2023/03/11 09:25:31;;;;;;;5.00;2.92;;;;;;;;;;4987446;28;20380;-67
2023/03/11 09:27:56;;;;;;;4.13;2.63;;;;;;;;;;4987103;28;20037;-66
2023/03/11 09:30:22;;;;;;;4.07;2.55;;;;;;;;;;4987171;28;20048;-66
2023/03/11 09:32:47;;;;;;;5.35;2.78;;;;;;;;;;4997322;28;20061;-66
2023/03/11 09:35:13;;;;;;;3.40;2.13;;;;;;;;;;5010571;28;20328;-66
2023/03/11 09:37:38;;;;;;;3.72;2.40;;;;;;;;;;4999706;28;20030;-66
2023/03/11 09:40:04;;;;;;;4.10;2.60;;;;;;;;;;5007530;28;20037;-66
2023/03/11 09:42:44;;;;;;;4.93;2.65;;;;;;;;;;5006306;28;20470;-66
2023/03/11 09:45:18;;;;;;;6.60;3.42;;;;;;;;;;4998818;28;20054;-67
2023/03/11 09:48:36;;;;;;;3.78;2.78;;;;;;;;;;5004026;28;20168;-66
2023/03/11 09:51:19;;;;;;;4.65;3.15;;;;;;;;;;4990560;28;20134;-66
2023/03/11 09:53:49;;;;;;;3.90;2.70;;;;;;;;;;4993798;28;20046;-66
2023/03/11 09:56:19;;;;;;;4.40;2.78;;;;;;;;;;4993640;28;20117;-66
2023/03/11 09:59:00;;;;;;;5.10;2.92;;;;;;;;;;4993404;28;20034;-66
2023/03/11 10:01:26;;;;;;;4.97;2.92;;;;;;;;;;4993409;28;20034;-66
2023/03/11 10:03:55;;;;;;;5.90;2.78;;;;;;;;;;4979301;28;20043;-67
2023/03/11 10:06:30;;;;;;;3.35;2.50;;;;;;;;;;4984989;28;20032;-67
2023/03/11 10:09:20;;;;;;;6.15;2.60;;;;;;;;;;4969749;28;20070;-67
2023/03/11 10:11:54;;;;;;;3.42;2.13;;;;;;;;;;4972019;28;20031;-67
2023/03/11 10:14:34;;;;;;;4.80;2.72;;;;;;;;;;4976584;28;20054;-67
2023/03/11 10:17:34;;;;;;;5.35;2.90;;;;;;;;;;4971925;28;20089;-67
2023/03/11 10:20:14;;;;;;;6.03;2.97;;;;;;;;;;4970213;28;20071;-67
2023/03/11 10:22:48;;;;;;;8.45;3.15;;;;;;;;;;4972182;28;20820;-67
2023/03/11 10:25:21;;;;;;;3.75;2.65;;;;;;;;;;4967241;28;20031;-67
2023/03/11 10:28:00;;;;;;;5.13;3.05;;;;;;;;;;4981255;28;20121;-67
2023/03/11 10:30:44;;;;;;;4.40;2.95;;;;;;;;;;4980403;28;20042;-68
2023/03/11 10:33:32;;;;;;;4.93;2.85;;;;;;;;;;4985997;28;20038;-67
2023/03/11 10:36:05;;;;;;;5.85;2.28;;;;;;;;;;5002593;28;20495;-67
2023/03/11 10:38:38;;;;;;;3.78;2.58;;;;;;;;;;5014510;28;20026;-68
2023/03/11 10:41:30;;;;;;;10.48;3.78;;;;;;;;;;4997456;28;20453;-68
2023/03/11 10:44:08;;;;;;;6.30;3.47;;;;;;;;;;4983006;28;20559;-68
2023/03/11 10:46:33;;;;;;;6.28;3.22;;;;;;;;;;4993943;28;20446;-68
2023/03/11 10:48:59;;;;;;;6.05;4.00;;;;;;;;;;4994303;28;20022;-68
2023/03/11 10:51:33;;;;;;;3.63;2.72;;;;;;;;;;4994485;28;20482;-68
2023/03/11 10:54:02;;;;;;;3.70;2.55;;;;;;;;;;4994740;28;20026;-68
2023/03/11 10:56:29;;;;;;;5.93;3.22;;;;;;;;;;4994319;28;20096;-68
2023/03/11 10:58:56;;;;;;;6.28;2.75;;;;;;;;;;4994273;28;20176;-68
2023/03/11 11:01:22;;;;;;;5.75;3.33;;;;;;;;;;4994261;28;20026;-68
2023/03/11 11:03:50;;;;;;;4.80;3.08;;;;;;;;;;4990487;28;20326;-67
2023/03/11 11:06:35;;;;;;;4.95;3.17;;;;;;;;;;4994065;28;20026;-68
2023/03/11 11:09:20;;;;;;;6.30;3.33;;;;;;;;;;4994187;28;20046;-68
2023/03/11 11:12:13;;;;;;;4.68;3.10;;;;;;;;;;4993988;28;20038;-68
2023/03/11 11:14:43;;;;;;;5.93;3.80;;;;;;;;;;4991261;28;20499;-68
2023/03/11 11:17:39;;;;;;;7.63;4.70;;;;;;;;;;4994218;28;20396;-68
2023/03/11 11:20:16;;;;;;;5.13;3.33;;;;;;;;;;4973042;28;20484;-68
2023/03/11 11:22:49;;;;;;;9.50;3.97;;;;;;;;;;4974610;28;20027;-68
2023/03/11 11:25:35;;;;;;;4.35;2.72;;;;;;;;;;4974408;28;20061;-68
2023/03/11 11:28:17;;;;;;;5.55;3.00;;;;;;;;;;4974430;28;20062;-68
2023/03/11 11:31:03;;;;;;;5.82;2.90;;;;;;;;;;4974383;28;20074;-68
2023/03/11 11:33:39;;;;;;;6.43;3.40;;;;;;;;;;4974488;28;20130;-69
2023/03/11 11:36:13;;;;;;;6.38;3.20;;;;;;;;;;4974526;28;20037;-68
2023/03/11 11:38:39;;;;;;;5.68;3.10;;;;;;;;;;4974312;28;20034;-69
2023/03/11 11:41:08;;;;;;;4.53;3.05;;;;;;;;;;4974382;28;20033;-69
2023/03/11 11:43:42;;;;;;;5.78;3.15;;;;;;;;;;4974357;28;20027;-68
2023/03/11 11:46:19;;;;;;;4.63;3.10;;;;;;;;;;4974239;28;20472;-68
2023/03/11 11:49:16;;;;;;;5.95;3.30;;;;;;;;;;4973152;28;20031;-67
2023/03/11 11:52:15;;;;;;;3.78;2.70;;;;;;;;;;4974008;28;20110;-67
2023/03/11 11:55:28;;;;;;;11.07;3.67;;;;;;;;;;4973966;28;20062;-67
2023/03/11 11:57:54;;;;;;;32.40;8.00;;;;;;;;;;4952473;29;20035;-67
2023/03/11 12:00:40;;;;;;;10.82;3.75;;;;;;;;;;4952441;29;20035;-70
2023/03/11 12:03:20;;;;;;;9.63;4.82;;;;;;;;;;4952685;29;20047;-67
2023/03/11 12:05:57;;;;;;;5.30;3.28;;;;;;;;;;4952405;29;20370;-67
2023/03/11 12:08:39;;;;;;;4.93;3.00;;;;;;;;;;4952289;29;20437;-68
2023/03/11 12:11:36;;;;;;;3.47;2.15;;;;;;;;;;4951987;28;20027;-68
2023/03/11 12:14:06;;;;;;;2.55;1.92;;;;;;;;;;4933240;29;20040;-68
2023/03/11 12:16:59;;;;;;;14.52;3.97;;;;;;;;;;4933409;29;20035;-68
2023/03/11 12:19:27;;;;;;;3.08;2.03;;;;;;;;;;4933527;29;20044;-68
2023/03/11 12:22:07;;;;;;;3.78;2.50;;;;;;;;;;4932752;29;20036;-68
2023/03/11 12:24:41;;;;;;;4.95;2.85;;;;;;;;;;4933493;29;20537;-68
2023/03/11 12:27:31;;;;;;;3.25;1.95;;;;;;;;;;4933256;29;20070;-68
2023/03/11 12:30:00;;;;;;;5.38;2.38;;;;;;;;;;4932975;29;20107;-68
2023/03/11 12:32:35;;;;;;;5.00;2.80;;;;;;;;;;4933027;29;20525;-68
2023/03/11 12:35:09;;;;;;;3.47;2.20;;;;;;;;;;4933044;29;20119;-69
2023/03/11 12:37:35;;;;;;;4.32;2.00;;;;;;;;;;4933043;29;20047;-68
2023/03/11 12:40:39;;;;;;;6.75;3.85;;;;;;;;;;4933218;29;20106;-68
2023/03/11 12:43:23;;;;;;;11.02;2.88;;;;;;;;;;4932987;29;20032;-68
2023/03/11 12:45:54;;;;;;;8.70;3.00;;;;;;;;;;4932877;29;20043;-68
2023/03/11 12:48:28;;;;;;;6.60;3.85;;;;;;;;;;4932676;29;20520;-68
2023/03/11 12:50:58;;;;;;;3.92;2.50;;;;;;;;;;4955864;28;20370;-68
2023/03/11 12:53:47;;;;;;;3.92;2.33;;;;;;;;;;4973572;28;20146;-69
2023/03/11 12:56:27;;;;;;;4.00;2.60;;;;;;;;;;4973545;28;20046;-68
2023/03/11 12:58:52;;;;;;;;;;;;;;;;;;4974030;28;20113;-68
2023/03/11 13:01:30;;;;;;;8.13;4.90;;;;;;;;;;4973424;28;19972;-68
2023/03/11 13:04:09;;;;;;;6.43;3.15;;;;;;;;;;4973346;28;20057;-69
2023/03/11 13:06:58;;;;;;;3.95;2.55;;;;;;;;;;4972059;28;20019;-68
2023/03/11 13:09:24;;;;;;;3.80;2.15;;;;;;;;;;4973531;28;20086;-69
2023/03/11 13:11:50;;;;;;;3.13;2.40;;;;;;;;;;4973261;28;20436;-69
2023/03/11 13:14:28;;;;;;;4.47;3.05;;;;;;;;;;4973343;28;20077;-69
2023/03/11 13:16:55;;;;;;;2.85;2.05;;;;;;;;;;4973277;28;20023;-69
2023/03/11 13:19:26;;;;;;;3.85;2.60;;;;;;;;;;4973352;28;20103;-69
2023/03/11 13:21:53;;;;;;;4.35;2.55;;;;;;;;;;4973498;28;20035;-69
2023/03/11 13:24:18;;;;;;;13.07;7.55;;;;;;;;;;4976866;28;20026;-69
2023/03/11 13:27:03;;;;;;;7.72;4.50;;;;;;;;;;4976782;28;20030;-69
2023/03/11 13:29:53;;;;;;;5.07;2.60;;;;;;;;;;4976633;28;20070;-69
2023/03/11 13:32:30;;;;;;;3.78;2.63;;;;;;;;;;4999340;28;20073;-69
2023/03/11 13:35:33;;;;;;;7.97;4.15;;;;;;;;;;5015570;28;20033;-69
2023/03/11 13:38:36;;;;;;;5.47;2.90;;;;;;;;;;5015662;28;20081;-69
2023/03/11 13:41:02;;;;;;;6.25;3.80;;;;;;;;;;4993700;28;20045;-69
2023/03/11 13:43:28;;;;;;;4.03;2.95;;;;;;;;;;4993816;28;20084;-69
2023/03/11 13:46:10;;;;;;;6.38;3.17;;;;;;;;;;4993651;28;20129;-70
2023/03/11 13:48:41;;;;;;;17.35;10.45;;;;;;;;;;4993793;28;20365;-69
2023/03/11 13:51:21;;;;;;;17.67;6.47;;;;;;;;;;4993507;28;20086;-69
2023/03/11 13:53:48;;;;;;;10.23;6.10;;;;;;;;;;4993401;28;20394;-70
2023/03/11 13:56:21;;;;;;;6.80;4.03;;;;;;;;;;4993474;28;20046;-70
2023/03/11 13:58:47;;;;;;;5.03;3.53;;;;;;;;;;4993455;28;20042;-70
2023/03/11 14:01:17;;;;;;;5.55;3.83;;;;;;;;;;4975843;28;20038;-70
2023/03/11 14:03:45;;;;;;;8.32;3.97;;;;;;;;;;4973633;28;20471;-69
2023/03/11 14:06:16;;;;;;;5.90;3.63;;;;;;;;;;4973801;28;20035;-70
2023/03/11 14:08:42;;;;;;;4.47;3.45;;;;;;;;;;4973657;28;20086;-69
2023/03/11 14:11:10;;;;;;;6.15;3.85;;;;;;;;;;4973874;28;20047;-70
2023/03/11 14:13:44;;;;;;;5.88;4.38;;;;;;;;;;4973034;28;20023;-70
2023/03/11 14:16:23;;;;;;;15.60;6.55;;;;;;;;;;4973350;28;20043;-70
2023/03/11 14:19:12;;;;;;;25.17;11.45;;;;;;;;;;4982502;28;20086;-70
2023/03/11 14:21:42;;;;;;;5.50;4.15;;;;;;;;;;4995137;28;20113;-67
2023/03/11 14:24:38;;;;;;;6.20;4.37;;;;;;;;;;4995146;28;20029;-69
2023/03/11 14:27:08;;;;;;;3.92;3.00;;;;;;;;;;4994613;28;20630;-68
2023/03/11 14:29:39;;;;;;;6.70;4.13;;;;;;;;;;4994813;28;20492;-68
2023/03/11 14:32:26;;;;;;;7.13;4.05;;;;;;;;;;5004189;28;20056;-68
2023/03/11 14:34:52;;;;;;;7.53;4.57;;;;;;;;;;5014035;28;20092;-68
2023/03/11 14:37:33;;;;;;;5.57;3.17;;;;;;;;;;5014518;28;20030;-69
2023/03/11 14:39:59;;;;;;;5.07;3.45;;;;;;;;;;5014354;28;20140;-69
2023/03/11 14:42:30;;;;;;;6.63;4.35;;;;;;;;;;5014243;28;20030;-69
2023/03/11 14:45:00;;;;;;;10.35;3.92;;;;;;;;;;5014285;28;20490;-69
2023/03/11 14:47:32;;;;;;;5.78;3.90;;;;;;;;;;5014152;28;20025;-69
2023/03/11 14:49:58;;;;;;;5.80;3.47;;;;;;;;;;5014233;28;20448;-69
2023/03/11 14:52:34;;;;;;;7.55;4.10;;;;;;;;;;5014198;28;20383;-69
2023/03/11 14:55:00;;;;;;;19.70;9.10;;;;;;;;;;5014163;28;20033;-69